Time;durP1;ratioP1;P1;durP2;ratioP2;P2;SDS_P1;SDS_P2;PMS_P1;PMS_P2;Temp;Humidity;BMP_temperature;BMP_pressure;BME280_temperature;BME280_humidity;BME280_pressure;Samples;Min_cycle;Max_cycle;Signal;HPM_P1;HPM_P2
2021/09/07 00:00:11;;;;;;;;;;;;;;;;;;2106374;28;3272;-73
2021/09/07 00:01:11;;;;;;;;;;;;;;;;;;2104396;28;3758;-73
2021/09/07 00:02:12;;;;;;;;;;;;;;;;;;2106108;28;3617;-73
2021/09/07 00:03:12;;;;;;;;;;;;;;;;;;2104917;28;3635;-73
2021/09/07 00:04:13;;;;;;;;;;;;;;;;;;2099625;28;3751;-73
2021/09/07 00:05:13;;;;;;;;;;;;;;;;;;2101661;28;3754;-72
2021/09/07 00:06:17;;;;;;;;;;;;;;;;;;2104448;28;3197;-73
2021/09/07 00:07:17;;;;;;;;;;;;;;;;;;2105442;28;3778;-72
2021/09/07 00:08:18;;;;;;;;;;;;;;;;;;2106908;28;4133;-73
2021/09/07 00:09:18;;;;;;;;;;;;;;;;;;2104635;27;3759;-73
2021/09/07 00:10:19;;;;;;;;;;;;;;;;;;2106351;28;1073;-73
2021/09/07 00:11:19;;;;;;;;;;;;;;;;;;2104833;28;3011;-73
2021/09/07 00:12:20;;;;;;;;;;;;;;;;;;2106618;28;1150;-72
2021/09/07 00:13:21;;;;;;;;;;;;;;;;;;2105089;28;1092;-73
2021/09/07 00:14:22;;;;;;;;;;;;;;;;;;2105764;28;1180;-73
2021/09/07 00:15:23;;;;;;;;;;;;;;;;;;2105673;28;3823;-73
2021/09/07 00:16:23;;;;;;;;;;;;;;;;;;2105377;28;2923;-72
2021/09/07 00:17:24;;;;;;;;;;;;;;;;;;2105080;28;4179;-73
2021/09/07 00:18:24;;;;;;;;;;;;;;;;;;2106035;28;3390;-73
2021/09/07 00:19:25;;;;;;;;;;;;;;;;;;2105716;28;3619;-73
2021/09/07 00:20:25;;;;;;;;;;;;;;;;;;2103720;28;4349;-73
2021/09/07 00:21:26;;;;;;;;;;;;;;;;;;2105273;28;3639;-72
2021/09/07 00:22:27;;;;;;;;;;;;;;;;;;2104098;28;4069;-73
2021/09/07 00:23:28;;;;;;;;;;;;;;;;;;2104388;28;4747;-73
2021/09/07 00:24:28;;;;;;;;;;;;;;;;;;2104947;28;3986;-73
2021/09/07 00:25:29;;;;;;;;;;;;;;;;;;2105843;28;3939;-73
2021/09/07 00:26:29;;;;;;;;;;;;;;;;;;2104590;28;3411;-73
2021/09/07 00:27:30;;;;;;;;;;;;;;;;;;2106318;28;2049;-73
2021/09/07 00:28:30;;;;;;;;;;;;;;;;;;2104815;28;3786;-73
2021/09/07 00:29:31;;;;;;;;;;;;;;;;;;2102989;28;3198;-73
2021/09/07 00:30:31;;;;;;;;;;;;;;;;;;2105537;28;1143;-72
2021/09/07 00:31:33;;;;;;;;;;;;;;;;;;2104989;28;3939;-73
2021/09/07 00:32:33;;;;;;;;;;;;;;;;;;2105325;28;3082;-73
2021/09/07 00:33:34;;;;;;;;;;;;;;;;;;2105307;28;4266;-73
2021/09/07 00:34:34;;;;;;;;;;;;;;;;;;2105880;28;1344;-73
2021/09/07 00:35:35;;;;;;;;;;;;;;;;;;2103793;28;3943;-73
2021/09/07 00:36:36;;;;;;;;;;;;;;;;;;2104597;28;1118;-73
2021/09/07 00:37:37;;;;;;;;;;;;;;;;;;2105514;28;3917;-73
2021/09/07 00:38:37;;;;;;;;;;;;;;;;;;2106154;28;1121;-73
2021/09/07 00:39:38;;;;;;;;;;;;;;;;;;2105522;28;3447;-73
2021/09/07 00:40:38;;;;;;;;;;;;;;;;;;2105367;28;3935;-72
2021/09/07 00:41:39;;;;;;;;;;;;;;;;;;2105067;28;3889;-72
2021/09/07 00:42:40;;;;;;;;;;;;;;;;;;2106048;27;1162;-73
2021/09/07 00:43:40;;;;;;;;;;;;;;;;;;2104907;28;3738;-73
2021/09/07 00:44:41;;;;;;;;;;;;;;;;;;2105416;28;1963;-72
2021/09/07 00:45:42;;;;;;;;;;;;;;;;;;2105074;28;3904;-72
2021/09/07 00:46:43;;;;;;;;;;;;;;;;;;2104512;28;4169;-73
2021/09/07 00:47:43;;;;;;;;;;;;;;;;;;2105141;28;3916;-73
2021/09/07 00:48:45;;;;;;;;;;;;;;;;;;2105325;28;3999;-72
2021/09/07 00:49:45;;;;;;;;;;;;;;;;;;2104883;28;3807;-73
2021/09/07 00:50:46;;;;;;;;;;;;;;;;;;2104398;28;4056;-73
2021/09/07 00:51:46;;;;;;;;;;;;;;;;;;2106006;28;1021;-73
2021/09/07 00:52:48;;;;;;;;;;;;;;;;;;2105512;28;3935;-73
2021/09/07 00:53:48;;;;;;;;;;;;;;;;;;2103715;28;3932;-72
2021/09/07 00:54:49;;;;;;;;;;;;;;;;;;2104131;28;3963;-73
2021/09/07 00:55:49;;;;;;;;;;;;;;;;;;2104096;28;4360;-73
2021/09/07 00:56:50;;;;;;;;;;;;;;;;;;2106178;28;1072;-73
2021/09/07 00:57:50;;;;;;;;;;;;;;;;;;2105595;28;1133;-72
2021/09/07 00:58:51;;;;;;;;;;;;;;;;;;2104699;28;4045;-72
2021/09/07 00:59:51;;;;;;;;;;;;;;;;;;2104904;28;3995;-72
2021/09/07 01:00:52;;;;;;;;;;;;;;;;;;2104205;28;4258;-73
2021/09/07 01:01:53;;;;;;;;;;;;;;;;;;2105368;28;974;-73
2021/09/07 01:02:54;;;;;;;;;;;;;;;;;;2105540;28;3977;-73
2021/09/07 01:03:54;;;;;;;;;;;;;;;;;;2104084;28;4058;-73
2021/09/07 01:04:55;;;;;;;;;;;;;;;;;;2104307;28;3927;-74
2021/09/07 01:05:55;;;;;;;;;;;;;;;;;;2105462;28;3928;-73
2021/09/07 01:06:56;;;;;;;;;;;;;;;;;;2106038;28;1020;-73
2021/09/07 01:07:56;;;;;;;;;;;;;;;;;;2106373;28;1044;-72
2021/09/07 01:08:57;;;;;;;;;;;;;;;;;;2105465;28;4031;-73
2021/09/07 01:09:58;;;;;;;;;;;;;;;;;;2104148;28;4119;-73
2021/09/07 01:10:59;;;;;;;;;;;;;;;;;;2104716;28;3943;-73
2021/09/07 01:11:59;;;;;;;;;;;;;;;;;;2106052;28;1124;-72
2021/09/07 01:13:00;;;;;;;;;;;;;;;;;;2104114;28;4005;-73
2021/09/07 01:14:00;;;;;;;;;;;;;;;;;;2102637;28;3911;-72
2021/09/07 01:15:02;;;;;;;;;;;;;;;;;;2104468;28;4155;-73
2021/09/07 01:16:02;;;;;;;;;;;;;;;;;;2103827;28;4086;-73
2021/09/07 01:17:03;;;;;;;;;;;;;;;;;;2105178;28;1180;-73
2021/09/07 01:18:04;;;;;;;;;;;;;;;;;;2103255;28;4042;-72
2021/09/07 01:19:06;;;;;;;;;;;;;;;;;;2104500;28;3826;-73
2021/09/07 01:20:07;;;;;;;;;;;;;;;;;;2105065;28;2576;-73
2021/09/07 01:21:09;;;;;;;;;;;;;;;;;;2104966;28;4011;-73
2021/09/07 01:22:10;;;;;;;;;;;;;;;;;;2105011;28;4008;-72
2021/09/07 01:23:10;;;;;;;;;;;;;;;;;;2104636;28;3917;-73
2021/09/07 01:24:11;;;;;;;;;;;;;;;;;;2104744;28;3969;-73
2021/09/07 01:25:13;;;;;;;;;;;;;;;;;;2105530;28;2414;-72
2021/09/07 01:26:13;;;;;;;;;;;;;;;;;;2102153;28;4627;-73
2021/09/07 01:27:14;;;;;;;;;;;;;;;;;;2105237;28;3903;-73
2021/09/07 01:28:16;;;;;;;;;;;;;;;;;;2105382;28;4515;-73
2021/09/07 01:29:17;;;;;;;;;;;;;;;;;;2104786;28;4132;-73
2021/09/07 01:30:18;;;;;;;;;;;;;;;;;;2104601;28;4491;-73
2021/09/07 01:31:18;;;;;;;;;;;;;;;;;;2103801;27;3937;-73
2021/09/07 01:32:19;;;;;;;;;;;;;;;;;;2104076;28;4133;-73
2021/09/07 01:33:19;;;;;;;;;;;;;;;;;;2103946;28;1079;-73
2021/09/07 01:34:20;;;;;;;;;;;;;;;;;;2104803;28;1076;-73
2021/09/07 01:35:21;;;;;;;;;;;;;;;;;;2103760;28;2647;-73
2021/09/07 01:36:22;;;;;;;;;;;;;;;;;;2104444;28;1131;-73
2021/09/07 01:37:26;;;;;;;;;;;;;;;;;;2103987;27;3950;-73
2021/09/07 01:38:28;;;;;;;;;;;;;;;;;;2105034;28;1257;-72
2021/09/07 01:39:29;;;;;;;;;;;;;;;;;;2104344;28;1039;-73
2021/09/07 01:40:29;;;;;;;;;;;;;;;;;;2103939;28;3864;-73
2021/09/07 01:41:33;;;;;;;;;;;;;;;;;;2103106;28;4029;-72
2021/09/07 01:42:33;;;;;;;;;;;;;;;;;;2104523;28;1048;-73
2021/09/07 01:43:34;;;;;;;;;;;;;;;;;;2104263;28;3870;-73
2021/09/07 01:44:34;;;;;;;;;;;;;;;;;;2099273;28;3945;-73
2021/09/07 01:45:35;;;;;;;;;;;;;;;;;;2100636;28;3746;-73
2021/09/07 01:46:47;;;;;;;;;;;;;;;;;;2102118;28;3967;-72
2021/09/07 01:47:50;;;;;;;;;;;;;;;;;;2103888;28;4233;-73
2021/09/07 01:48:50;;;;;;;;;;;;;;;;;;2104045;28;4148;-73
2021/09/07 01:49:51;;;;;;;;;;;;;;;;;;2104083;28;3951;-73
2021/09/07 01:50:51;;;;;;;;;;;;;;;;;;2104243;28;4045;-73
2021/09/07 01:51:52;;;;;;;;;;;;;;;;;;2103994;28;3975;-73
2021/09/07 01:52:53;;;;;;;;;;;;;;;;;;2105177;28;1087;-73
2021/09/07 01:53:54;;;;;;;;;;;;;;;;;;2102926;28;1080;-73
2021/09/07 01:54:54;;;;;;;;;;;;;;;;;;2104923;28;3984;-73
2021/09/07 01:55:55;;;;;;;;;;;;;;;;;;2104984;28;3539;-73
2021/09/07 01:56:55;;;;;;;;;;;;;;;;;;2105066;28;4073;-73
2021/09/07 01:57:56;;;;;;;;;;;;;;;;;;2105484;28;4069;-72
2021/09/07 01:58:56;;;;;;;;;;;;;;;;;;2104577;28;4201;-72
2021/09/07 01:59:57;;;;;;;;;;;;;;;;;;2105794;28;1096;-72
2021/09/07 02:01:00;;;;;;;;;;;;;;;;;;2104131;28;4055;-73
2021/09/07 02:02:02;;;;;;;;;;;;;;;;;;2105440;28;3975;-72
2021/09/07 02:03:02;;;;;;;;;;;;;;;;;;2104755;28;1202;-73
2021/09/07 02:04:03;;;;;;;;;;;;;;;;;;2104723;28;1160;-73
2021/09/07 02:05:03;;;;;;;;;;;;;;;;;;2104855;28;3268;-73
2021/09/07 02:06:04;;;;;;;;;;;;;;;;;;2104362;28;1107;-73
2021/09/07 02:07:04;;;;;;;;;;;;;;;;;;2105668;28;3842;-72
2021/09/07 02:08:05;;;;;;;;;;;;;;;;;;2105480;28;1014;-73
2021/09/07 02:09:06;;;;;;;;;;;;;;;;;;2103502;28;4074;-72
2021/09/07 02:10:07;;;;;;;;;;;;;;;;;;2105010;28;1914;-72
2021/09/07 02:11:08;;;;;;;;;;;;;;;;;;2105172;28;1335;-72
2021/09/07 02:12:08;;;;;;;;;;;;;;;;;;2103947;27;4248;-73
2021/09/07 02:13:12;;;;;;;;;;;;;;;;;;2105752;28;1173;-73
2021/09/07 02:14:12;;;;;;;;;;;;;;;;;;2104623;28;1088;-72
2021/09/07 02:15:14;;;;;;;;;;;;;;;;;;2104823;28;3972;-72
2021/09/07 02:16:14;;;;;;;;;;;;;;;;;;2103581;28;1167;-72
2021/09/07 02:17:15;;;;;;;;;;;;;;;;;;2104179;28;4708;-72
2021/09/07 02:18:15;;;;;;;;;;;;;;;;;;2104042;28;4121;-73
2021/09/07 02:19:19;;;;;;;;;;;;;;;;;;2104916;28;3962;-73
2021/09/07 02:20:19;;;;;;;;;;;;;;;;;;2104818;28;1179;-73
2021/09/07 02:21:20;;;;;;;;;;;;;;;;;;2103815;28;1427;-73
2021/09/07 02:22:20;;;;;;;;;;;;;;;;;;2102820;28;4419;-72
2021/09/07 02:23:21;;;;;;;;;;;;;;;;;;2103999;28;4531;-72
2021/09/07 02:24:21;;;;;;;;;;;;;;;;;;2104729;27;4607;-73
2021/09/07 02:25:22;;;;;;;;;;;;;;;;;;2104025;28;3830;-73
2021/09/07 02:26:23;;;;;;;;;;;;;;;;;;2103068;28;1948;-72
2021/09/07 02:27:24;;;;;;;;;;;;;;;;;;2103803;28;4137;-73
2021/09/07 02:28:24;;;;;;;;;;;;;;;;;;2104654;28;2060;-73
2021/09/07 02:29:25;;;;;;;;;;;;;;;;;;2104899;28;3530;-72
2021/09/07 02:30:25;;;;;;;;;;;;;;;;;;2102734;28;4291;-72
2021/09/07 02:31:29;;;;;;;;;;;;;;;;;;2104235;28;1104;-72
2021/09/07 02:32:29;;;;;;;;;;;;;;;;;;2104815;28;2876;-72
2021/09/07 02:33:30;;;;;;;;;;;;;;;;;;2102497;28;4120;-72
2021/09/07 02:34:30;;;;;;;;;;;;;;;;;;2104434;28;4363;-73
2021/09/07 02:35:33;;;;;;;;;;;;;;;;;;2102427;28;3980;-73
2021/09/07 02:36:37;;;;;;;;;;;;;;;;;;2104434;28;1122;-72
2021/09/07 02:37:37;;;;;;;;;;;;;;;;;;2104081;28;1237;-73
2021/09/07 02:38:38;;;;;;;;;;;;;;;;;;2104668;28;1096;-73
2021/09/07 02:39:38;;;;;;;;;;;;;;;;;;2104173;28;3771;-73
2021/09/07 02:40:39;;;;;;;;;;;;;;;;;;2104195;28;3941;-73
2021/09/07 02:41:39;;;;;;;;;;;;;;;;;;2102872;27;3910;-72
2021/09/07 02:42:40;;;;;;;;;;;;;;;;;;2104979;28;1088;-73
2021/09/07 02:43:40;;;;;;;;;;;;;;;;;;2104050;28;1155;-73
2021/09/07 02:44:41;;;;;;;;;;;;;;;;;;2104768;28;4000;-73
2021/09/07 02:45:41;;;;;;;;;;;;;;;;;;2103279;28;4341;-72
2021/09/07 02:46:43;;;;;;;;;;;;;;;;;;2102276;28;4061;-72
2021/09/07 02:47:43;;;;;;;;;;;;;;;;;;2102920;28;3695;-73
2021/09/07 02:48:44;;;;;;;;;;;;;;;;;;2104777;28;3577;-73
2021/09/07 02:49:44;;;;;;;;;;;;;;;;;;2103026;28;3192;-72
2021/09/07 02:50:46;;;;;;;;;;;;;;;;;;2096312;28;4289;-73
2021/09/07 02:51:47;;;;;;;;;;;;;;;;;;2103733;28;1078;-73
2021/09/07 02:52:48;;;;;;;;;;;;;;;;;;2104217;28;1093;-72
2021/09/07 02:53:52;;;;;;;;;;;;;;;;;;2099987;28;4075;-73
2021/09/07 02:54:53;;;;;;;;;;;;;;;;;;2103812;28;2172;-73
2021/09/07 02:55:53;;;;;;;;;;;;;;;;;;2104059;28;1152;-73
2021/09/07 02:56:54;;;;;;;;;;;;;;;;;;2104310;28;3939;-73
2021/09/07 02:57:54;;;;;;;;;;;;;;;;;;2104097;28;1046;-73
2021/09/07 02:58:55;;;;;;;;;;;;;;;;;;2105744;27;1168;-73
2021/09/07 02:59:56;;;;;;;;;;;;;;;;;;2105052;28;1168;-72
2021/09/07 03:00:57;;;;;;;;;;;;;;;;;;2102857;28;4053;-73
2021/09/07 03:01:57;;;;;;;;;;;;;;;;;;2105048;28;1050;-73
2021/09/07 03:02:58;;;;;;;;;;;;;;;;;;2103790;28;4009;-72
2021/09/07 03:03:59;;;;;;;;;;;;;;;;;;2103678;28;3984;-73
2021/09/07 03:05:03;;;;;;;;;;;;;;;;;;2100279;28;3740;-72
2021/09/07 03:06:03;;;;;;;;;;;;;;;;;;2103713;28;1196;-73
2021/09/07 03:07:04;;;;;;;;;;;;;;;;;;2104104;28;4015;-73
2021/09/07 03:08:04;;;;;;;;;;;;;;;;;;2105246;28;1029;-72
2021/09/07 03:09:05;;;;;;;;;;;;;;;;;;2104182;28;1545;-73
2021/09/07 03:10:05;;;;;;;;;;;;;;;;;;2103250;28;1975;-73
2021/09/07 03:11:07;;;;;;;;;;;;;;;;;;2101923;28;1058;-73
2021/09/07 03:12:07;;;;;;;;;;;;;;;;;;2104656;28;4519;-72
2021/09/07 03:13:10;;;;;;;;;;;;;;;;;;2103995;28;986;-72
2021/09/07 03:14:11;;;;;;;;;;;;;;;;;;2103636;28;3980;-73
2021/09/07 03:15:11;;;;;;;;;;;;;;;;;;2103846;28;3416;-73
2021/09/07 03:16:13;;;;;;;;;;;;;;;;;;2103889;28;1275;-73
2021/09/07 03:17:14;;;;;;;;;;;;;;;;;;2102996;28;3977;-72
2021/09/07 03:18:14;;;;;;;;;;;;;;;;;;2104601;28;4030;-73
2021/09/07 03:19:15;;;;;;;;;;;;;;;;;;2103653;28;4241;-73
2021/09/07 03:20:15;;;;;;;;;;;;;;;;;;2103553;28;4230;-73
2021/09/07 03:21:16;;;;;;;;;;;;;;;;;;2102734;28;3934;-73
2021/09/07 03:22:16;;;;;;;;;;;;;;;;;;2104482;28;1143;-73
2021/09/07 03:23:19;;;;;;;;;;;;;;;;;;2101361;28;4306;-73
2021/09/07 03:24:19;;;;;;;;;;;;;;;;;;2104731;28;1144;-72
2021/09/07 03:25:20;;;;;;;;;;;;;;;;;;2102959;28;4278;-73
2021/09/07 03:26:20;;;;;;;;;;;;;;;;;;2103428;28;1049;-73
2021/09/07 03:27:21;;;;;;;;;;;;;;;;;;2104520;28;1106;-72
2021/09/07 03:28:21;;;;;;;;;;;;;;;;;;2103934;28;4125;-73
2021/09/07 03:29:22;;;;;;;;;;;;;;;;;;2103837;28;3902;-73
2021/09/07 03:30:23;;;;;;;;;;;;;;;;;;2101615;28;4002;-72
2021/09/07 03:31:24;;;;;;;;;;;;;;;;;;2102437;28;4187;-73
2021/09/07 03:32:30;;;;;;;;;;;;;;;;;;2105128;28;1099;-73
2021/09/07 03:33:34;;;;;;;;;;;;;;;;;;2102756;28;3913;-72
2021/09/07 03:34:34;;;;;;;;;;;;;;;;;;2104377;28;1110;-73
2021/09/07 03:35:35;;;;;;;;;;;;;;;;;;2103746;28;3607;-72
2021/09/07 03:36:36;;;;;;;;;;;;;;;;;;2104288;28;1351;-72
2021/09/07 03:37:45;;;;;;;;;;;;;;;;;;2105574;28;1098;-73
2021/09/07 03:38:46;;;;;;;;;;;;;;;;;;2104329;28;3944;-74
2021/09/07 03:39:46;;;;;;;;;;;;;;;;;;2104747;28;3919;-73
2021/09/07 03:40:47;;;;;;;;;;;;;;;;;;2103415;28;3951;-72
2021/09/07 03:42:38;;;;;;;;;;;;;;;;;;2120736;27;3996;-74
2021/09/07 03:43:38;;;;;;;;;;;;;;;;;;2120383;27;3842;-74
2021/09/07 03:44:39;;;;;;;;;;;;;;;;;;2121660;27;3831;-74
2021/09/07 03:45:44;;;;;;;;;;;;;;;;;;2114209;27;3906;-73
2021/09/07 03:46:44;;;;;;;;;;;;;;;;;;2112560;27;3770;-72
2021/09/07 03:47:45;;;;;;;;;;;;;;;;;;2113449;27;3946;-72
2021/09/07 03:48:45;;;;;;;;;;;;;;;;;;2113956;27;4299;-73
2021/09/07 03:49:46;;;;;;;;;;;;;;;;;;2115068;27;2721;-72
2021/09/07 03:50:46;;;;;;;;;;;;;;;;;;2113238;27;3990;-72
2021/09/07 03:51:47;;;;;;;;;;;;;;;;;;2114120;27;1292;-72
2021/09/07 03:52:47;;;;;;;;;;;;;;;;;;2113783;27;3894;-72
2021/09/07 03:53:48;;;;;;;;;;;;;;;;;;2112365;27;4082;-73
2021/09/07 03:54:49;;;;;;;;;;;;;;;;;;2113581;27;3954;-72
2021/09/07 03:55:50;;;;;;;;;;;;;;;;;;2114436;27;3010;-73
2021/09/07 03:56:50;;;;;;;;;;;;;;;;;;2113341;27;3721;-72
2021/09/07 03:57:51;;;;;;;;;;;;;;;;;;2114643;27;4612;-72
2021/09/07 03:58:51;;;;;;;;;;;;;;;;;;2114382;27;3994;-72
2021/09/07 03:59:52;;;;;;;;;;;;;;;;;;2114601;27;4231;-72
2021/09/07 04:00:52;;;;;;;;;;;;;;;;;;2114412;27;4036;-72
2021/09/07 04:01:53;;;;;;;;;;;;;;;;;;2114938;27;2008;-72
2021/09/07 04:02:53;;;;;;;;;;;;;;;;;;2114926;27;1219;-72
2021/09/07 04:03:55;;;;;;;;;;;;;;;;;;2110253;27;1227;-72
2021/09/07 04:04:55;;;;;;;;;;;;;;;;;;2110948;27;4114;-72
2021/09/07 04:05:58;;;;;;;;;;;;;;;;;;2114814;27;1238;-72
2021/09/07 04:06:58;;;;;;;;;;;;;;;;;;2115586;27;1033;-72
2021/09/07 04:07:59;;;;;;;;;;;;;;;;;;2115708;27;3844;-72
2021/09/07 04:08:59;;;;;;;;;;;;;;;;;;2116007;27;1382;-72
2021/09/07 04:10:00;;;;;;;;;;;;;;;;;;2115143;27;3951;-72
2021/09/07 04:11:01;;;;;;;;;;;;;;;;;;2114259;27;3798;-72
2021/09/07 04:12:02;;;;;;;;;;;;;;;;;;2115345;27;4061;-72
2021/09/07 04:13:03;;;;;;;;;;;;;;;;;;2115959;27;4030;-72
2021/09/07 04:14:04;;;;;;;;;;;;;;;;;;2115635;27;4195;-72
2021/09/07 04:15:05;;;;;;;;;;;;;;;;;;2114720;27;3826;-72
2021/09/07 04:16:06;;;;;;;;;;;;;;;;;;2115682;27;1057;-73
2021/09/07 04:17:09;;;;;;;;;;;;;;;;;;2115617;27;3834;-72
2021/09/07 04:18:10;;;;;;;;;;;;;;;;;;2114734;27;4212;-72
2021/09/07 04:19:10;;;;;;;;;;;;;;;;;;2114339;27;4034;-72
2021/09/07 04:20:11;;;;;;;;;;;;;;;;;;2114925;27;3814;-73
2021/09/07 04:21:12;;;;;;;;;;;;;;;;;;2114967;27;1212;-72
2021/09/07 04:22:13;;;;;;;;;;;;;;;;;;2115017;27;4049;-72
2021/09/07 04:23:14;;;;;;;;;;;;;;;;;;2114249;27;4042;-73
2021/09/07 04:24:15;;;;;;;;;;;;;;;;;;2115696;27;3760;-72
2021/09/07 04:25:18;;;;;;;;;;;;;;;;;;2114590;27;3646;-72
2021/09/07 04:26:19;;;;;;;;;;;;;;;;;;2110962;27;5066;-72
2021/09/07 04:27:19;;;;;;;;;;;;;;;;;;2113212;27;4422;-73
2021/09/07 04:28:20;;;;;;;;;;;;;;;;;;2115107;27;4242;-72
2021/09/07 04:29:21;;;;;;;;;;;;;;;;;;2116944;27;1513;-72
2021/09/07 04:30:22;;;;;;;;;;;;;;;;;;2113246;27;4604;-72
2021/09/07 04:31:22;;;;;;;;;;;;;;;;;;2113982;27;4239;-72
2021/09/07 04:32:23;;;;;;;;;;;;;;;;;;2113502;27;4618;-73
2021/09/07 04:33:23;;;;;;;;;;;;;;;;;;2116328;27;2358;-72
2021/09/07 04:34:24;;;;;;;;;;;;;;;;;;2117150;27;3260;-72
2021/09/07 04:35:24;;;;;;;;;;;;;;;;;;2116477;27;4573;-72
2021/09/07 04:36:25;;;;;;;;;;;;;;;;;;2116435;27;2185;-72
2021/09/07 04:37:26;;;;;;;;;;;;;;;;;;2117335;27;2636;-72
2021/09/07 04:38:27;;;;;;;;;;;;;;;;;;2118325;27;1087;-72
2021/09/07 04:39:27;;;;;;;;;;;;;;;;;;2116688;27;2567;-72
2021/09/07 04:40:30;;;;;;;;;;;;;;;;;;2116822;27;3877;-72
2021/09/07 04:41:30;;;;;;;;;;;;;;;;;;2118102;27;1993;-72
2021/09/07 04:42:31;;;;;;;;;;;;;;;;;;2118249;27;1088;-72
2021/09/07 04:43:31;;;;;;;;;;;;;;;;;;2118688;27;1052;-73
2021/09/07 04:44:32;;;;;;;;;;;;;;;;;;2119401;27;1071;-72
2021/09/07 04:45:33;;;;;;;;;;;;;;;;;;2118247;27;1751;-72
2021/09/07 04:46:34;;;;;;;;;;;;;;;;;;2117134;27;2584;-72
2021/09/07 04:47:34;;;;;;;;;;;;;;;;;;2119260;27;3799;-72
2021/09/07 04:48:35;;;;;;;;;;;;;;;;;;2117995;27;4774;-72
2021/09/07 04:49:37;;;;;;;;;;;;;;;;;;2112450;27;1326;-72
2021/09/07 04:50:39;;;;;;;;;;;;;;;;;;2116377;27;4260;-72
2021/09/07 04:51:39;;;;;;;;;;;;;;;;;;2118222;27;1585;-72
2021/09/07 04:52:40;;;;;;;;;;;;;;;;;;2119546;27;1755;-72
2021/09/07 04:53:40;;;;;;;;;;;;;;;;;;2110863;27;1097;-72
2021/09/07 04:54:41;;;;;;;;;;;;;;;;;;2114117;27;1001;-72
2021/09/07 04:55:42;;;;;;;;;;;;;;;;;;2112643;27;2801;-72
2021/09/07 04:56:43;;;;;;;;;;;;;;;;;;2113406;27;1021;-72
2021/09/07 04:57:44;;;;;;;;;;;;;;;;;;2113589;27;4368;-72
2021/09/07 04:58:46;;;;;;;;;;;;;;;;;;2112112;27;4395;-72
2021/09/07 04:59:48;;;;;;;;;;;;;;;;;;2113443;27;1869;-72
2021/09/07 05:00:48;;;;;;;;;;;;;;;;;;2111046;27;2770;-72
2021/09/07 05:01:49;;;;;;;;;;;;;;;;;;2107506;27;1905;-72
2021/09/07 05:02:49;;;;;;;;;;;;;;;;;;2106869;27;2050;-72
2021/09/07 05:03:50;;;;;;;;;;;;;;;;;;2106733;27;1050;-72
2021/09/07 05:04:53;;;;;;;;;;;;;;;;;;2107630;27;1795;-72
2021/09/07 05:05:54;;;;;;;;;;;;;;;;;;2107443;27;2406;-72
2021/09/07 05:06:55;;;;;;;;;;;;;;;;;;2107564;27;1157;-72
2021/09/07 05:07:58;;;;;;;;;;;;;;;;;;2107825;27;1074;-72
2021/09/07 05:08:58;;;;;;;;;;;;;;;;;;2108160;27;1337;-72
2021/09/07 05:09:59;;;;;;;;;;;;;;;;;;2107583;27;2208;-72
2021/09/07 05:10:59;;;;;;;;;;;;;;;;;;2107415;27;1755;-72
2021/09/07 05:12:00;;;;;;;;;;;;;;;;;;2107517;27;1013;-72
2021/09/07 05:13:00;;;;;;;;;;;;;;;;;;2108805;27;1108;-72
2021/09/07 05:14:01;;;;;;;;;;;;;;;;;;2107675;27;1121;-73
2021/09/07 05:15:02;;;;;;;;;;;;;;;;;;2108843;27;2010;-72
2021/09/07 05:16:03;;;;;;;;;;;;;;;;;;2107547;27;2016;-72
2021/09/07 05:17:04;;;;;;;;;;;;;;;;;;2109172;27;2368;-72
2021/09/07 05:18:05;;;;;;;;;;;;;;;;;;2109147;27;1165;-72
2021/09/07 05:19:07;;;;;;;;;;;;;;;;;;2109235;27;982;-72
2021/09/07 05:20:07;;;;;;;;;;;;;;;;;;2107211;27;1649;-72
2021/09/07 05:21:08;;;;;;;;;;;;;;;;;;2108681;27;1236;-72
2021/09/07 05:22:08;;;;;;;;;;;;;;;;;;2108697;27;1972;-72
2021/09/07 05:23:09;;;;;;;;;;;;;;;;;;2108831;27;3274;-73
2021/09/07 05:24:11;;;;;;;;;;;;;;;;;;2108441;27;4252;-72
2021/09/07 05:25:14;;;;;;;;;;;;;;;;;;2107892;27;3779;-72
2021/09/07 05:26:14;;;;;;;;;;;;;;;;;;2107969;27;3826;-72
2021/09/07 05:27:15;;;;;;;;;;;;;;;;;;2109634;27;1153;-72
2021/09/07 05:28:15;;;;;;;;;;;;;;;;;;2108952;27;2875;-72
2021/09/07 05:29:16;;;;;;;;;;;;;;;;;;2109569;27;4098;-72
2021/09/07 05:30:17;;;;;;;;;;;;;;;;;;2109443;27;1109;-72
2021/09/07 05:31:18;;;;;;;;;;;;;;;;;;2110209;27;1076;-72
2021/09/07 05:32:21;;;;;;;;;;;;;;;;;;2107234;27;1468;-72
2021/09/07 05:33:23;;;;;;;;;;;;;;;;;;2107793;27;3965;-72
2021/09/07 05:34:23;;;;;;;;;;;;;;;;;;2107669;27;4347;-72
2021/09/07 05:35:24;;;;;;;;;;;;;;;;;;2106963;27;4077;-72
2021/09/07 05:36:24;;;;;;;;;;;;;;;;;;2109609;27;1160;-72
2021/09/07 05:37:25;;;;;;;;;;;;;;;;;;2111163;27;1286;-72
2021/09/07 05:38:25;;;;;;;;;;;;;;;;;;2110184;27;2254;-72
2021/09/07 05:39:26;;;;;;;;;;;;;;;;;;2108621;27;2374;-72
2021/09/07 05:40:27;;;;;;;;;;;;;;;;;;2109798;27;2650;-72
2021/09/07 05:41:28;;;;;;;;;;;;;;;;;;2107701;27;4153;-72
2021/09/07 05:42:28;;;;;;;;;;;;;;;;;;2109895;27;2400;-72
2021/09/07 05:43:29;;;;;;;;;;;;;;;;;;2108051;27;1767;-72
2021/09/07 05:44:29;;;;;;;;;;;;;;;;;;2107308;27;4051;-72
2021/09/07 05:45:30;;;;;;;;;;;;;;;;;;2108628;27;3816;-72
2021/09/07 05:46:30;;;;;;;;;;;;;;;;;;2109974;27;1088;-72
2021/09/07 05:47:31;;;;;;;;;;;;;;;;;;2111157;27;1041;-72
2021/09/07 05:48:31;;;;;;;;;;;;;;;;;;2111413;27;2223;-72
2021/09/07 05:49:33;;;;;;;;;;;;;;;;;;2107771;27;4153;-72
2021/09/07 05:50:34;;;;;;;;;;;;;;;;;;2110728;27;3545;-72
2021/09/07 05:51:34;;;;;;;;;;;;;;;;;;2109817;27;1829;-72
2021/09/07 05:52:35;;;;;;;;;;;;;;;;;;2108264;27;4212;-72
2021/09/07 05:53:37;;;;;;;;;;;;;;;;;;2105452;27;3994;-72
2021/09/07 05:54:37;;;;;;;;;;;;;;;;;;2109873;27;2479;-72
2021/09/07 05:55:38;;;;;;;;;;;;;;;;;;2109703;27;4073;-72
2021/09/07 05:56:38;;;;;;;;;;;;;;;;;;2109551;27;4258;-72
2021/09/07 05:57:39;;;;;;;;;;;;;;;;;;2112607;27;1184;-72
2021/09/07 05:58:39;;;;;;;;;;;;;;;;;;2110789;27;4029;-72
2021/09/07 05:59:40;;;;;;;;;;;;;;;;;;2111926;27;1045;-72
2021/09/07 06:00:42;;;;;;;;;;;;;;;;;;2112315;27;1168;-72
2021/09/07 06:01:42;;;;;;;;;;;;;;;;;;2112267;27;1022;-73
2021/09/07 06:02:43;;;;;;;;;;;;;;;;;;2109849;27;1910;-72
2021/09/07 06:03:43;;;;;;;;;;;;;;;;;;2108124;27;2066;-72
2021/09/07 06:04:44;;;;;;;;;;;;;;;;;;2109241;27;3436;-72
2021/09/07 06:05:45;;;;;;;;;;;;;;;;;;2110851;27;3385;-72
2021/09/07 06:06:45;;;;;;;;;;;;;;;;;;2112411;27;1108;-72
2021/09/07 06:07:46;;;;;;;;;;;;;;;;;;2112506;27;1057;-72
2021/09/07 06:08:46;;;;;;;;;;;;;;;;;;2112461;27;1791;-72
2021/09/07 06:09:47;;;;;;;;;;;;;;;;;;2113077;27;1101;-72
2021/09/07 06:10:49;;;;;;;;;;;;;;;;;;2113573;27;1156;-72
2021/09/07 06:11:49;;;;;;;;;;;;;;;;;;2113164;27;1133;-72
2021/09/07 06:12:50;;;;;;;;;;;;;;;;;;2110947;27;2043;-72
2021/09/07 06:13:50;;;;;;;;;;;;;;;;;;2105611;27;4183;-72
2021/09/07 06:14:51;;;;;;;;;;;;;;;;;;2107014;27;2243;-72
2021/09/07 06:15:52;;;;;;;;;;;;;;;;;;2107157;27;1111;-72
2021/09/07 06:16:52;;;;;;;;;;;;;;;;;;2106284;27;2037;-72
2021/09/07 06:17:53;;;;;;;;;;;;;;;;;;2107046;27;2330;-72
2021/09/07 06:18:53;;;;;;;;;;;;;;;;;;2107167;27;1125;-72
2021/09/07 06:19:55;;;;;;;;;;;;;;;;;;2106720;27;962;-72
2021/09/07 06:20:56;;;;;;;;;;;;;;;;;;2103280;27;2161;-72
2021/09/07 06:21:57;;;;;;;;;;;;;;;;;;2107864;27;1052;-72
2021/09/07 06:22:57;;;;;;;;;;;;;;;;;;2107805;27;1902;-72
2021/09/07 06:23:58;;;;;;;;;;;;;;;;;;2107458;27;1511;-72
2021/09/07 06:24:58;;;;;;;;;;;;;;;;;;2106069;27;3964;-72
2021/09/07 06:25:59;;;;;;;;;;;;;;;;;;2108360;27;1002;-72
2021/09/07 06:27:00;;;;;;;;;;;;;;;;;;2107431;27;1045;-72
2021/09/07 06:28:01;;;;;;;;;;;;;;;;;;2108098;27;3684;-72
2021/09/07 06:29:01;;;;;;;;;;;;;;;;;;2107852;27;1607;-72
2021/09/07 06:30:02;;;;;;;;;;;;;;;;;;2107883;27;1079;-72
2021/09/07 06:31:02;;;;;;;;;;;;;;;;;;2107219;27;1053;-72
2021/09/07 06:32:03;;;;;;;;;;;;;;;;;;2107898;27;3186;-72
2021/09/07 06:33:03;;;;;;;;;;;;;;;;;;2107397;27;1111;-72
2021/09/07 06:34:04;;;;;;;;;;;;;;;;;;2108147;27;2136;-72
2021/09/07 06:35:04;;;;;;;;;;;;;;;;;;2106559;27;3684;-73
2021/09/07 06:36:06;;;;;;;;;;;;;;;;;;2108939;27;1084;-72
2021/09/07 06:37:06;;;;;;;;;;;;;;;;;;2108264;27;1103;-72
2021/09/07 06:38:07;;;;;;;;;;;;;;;;;;2108118;27;4039;-72
2021/09/07 06:39:07;;;;;;;;;;;;;;;;;;2108798;27;2073;-72
2021/09/07 06:40:10;;;;;;;;;;;;;;;;;;2109380;27;2336;-72
2021/09/07 06:41:10;;;;;;;;;;;;;;;;;;2108044;27;2241;-72
2021/09/07 06:42:11;;;;;;;;;;;;;;;;;;2108683;27;2305;-73
2021/09/07 06:43:12;;;;;;;;;;;;;;;;;;2108092;27;1901;-73
2021/09/07 06:44:12;;;;;;;;;;;;;;;;;;2109160;27;2491;-72
2021/09/07 06:45:13;;;;;;;;;;;;;;;;;;2108262;27;3916;-72
2021/09/07 06:46:15;;;;;;;;;;;;;;;;;;2109062;27;1115;-72
2021/09/07 06:47:15;;;;;;;;;;;;;;;;;;2107777;27;3949;-73
2021/09/07 06:48:16;;;;;;;;;;;;;;;;;;2108972;27;4233;-72
2021/09/07 06:49:16;;;;;;;;;;;;;;;;;;2109747;27;1467;-72
2021/09/07 06:50:17;;;;;;;;;;;;;;;;;;2106833;27;2254;-72
2021/09/07 06:51:17;;;;;;;;;;;;;;;;;;2107650;27;2019;-73
2021/09/07 06:52:20;;;;;;;;;;;;;;;;;;2105587;27;4485;-71
2021/09/07 06:53:21;;;;;;;;;;;;;;;;;;2106346;27;4355;-72
2021/09/07 06:54:22;;;;;;;;;;;;;;;;;;2108263;27;2018;-72
2021/09/07 06:55:23;;;;;;;;;;;;;;;;;;2104908;27;4175;-72
2021/09/07 06:56:24;;;;;;;;;;;;;;;;;;2109587;27;3994;-72
2021/09/07 06:57:26;;;;;;;;;;;;;;;;;;2109110;27;3709;-72
2021/09/07 06:58:27;;;;;;;;;;;;;;;;;;2108883;27;4246;-72
2021/09/07 06:59:27;;;;;;;;;;;;;;;;;;2109037;27;4209;-72
2021/09/07 07:00:28;;;;;;;;;;;;;;;;;;2106048;27;4247;-72
2021/09/07 07:01:28;;;;;;;;;;;;;;;;;;2107485;27;4200;-72
2021/09/07 07:02:29;;;;;;;;;;;;;;;;;;2108299;27;3829;-72
2021/09/07 07:03:31;;;;;;;;;;;;;;;;;;2107173;27;3790;-72